Birkenshaw, United Kingdom
Current Conditions -  °F | °C
As of 2:20 AM on Monday 26 Jan 2015 (Local Time) from EGNM Reporting Station
Light Rain Light Rain  
Wind Chill: 41°   Ceiling: Unl
Heat Index: 46°   Visibility: 6mi
Dew Point: 46°   Wind: 12mph
Humidity: 100%   Direction: 260°W
Pressure: 30.06"   Gusts: NA
Location:  53.75°N, 1.66°W
Report Text: EGNM 260220Z 26010KT 9999 -RADZ FEW008 SCT020 08/08 Q1018
Loading
Personal Weather Stations






























Interactive Weather Map New forecast layout! Learn more

10-Day Weather Forecast

Advertisements
Track Severe Weather on mobile